createdAt,value
2023-05-01T00:02:36.823Z,0
2023-05-01T00:08:56.793Z,0
2023-05-01T00:15:19.797Z,0
2023-05-01T00:21:39.734Z,0
2023-05-01T00:28:02.776Z,0
2023-05-01T00:34:22.809Z,0
2023-05-01T00:40:45.754Z,0
2023-05-01T00:47:05.758Z,0
2023-05-01T00:53:28.805Z,0
2023-05-01T00:59:48.736Z,0
2023-05-01T01:06:11.848Z,0
2023-05-01T01:12:31.754Z,0
2023-05-01T01:18:54.792Z,0
2023-05-01T01:25:14.740Z,0
2023-05-01T01:31:37.901Z,0
2023-05-01T01:37:57.762Z,0
2023-05-01T01:44:20.832Z,0
2023-05-01T01:50:40.789Z,0
2023-05-01T01:57:03.796Z,0
2023-05-01T02:03:23.829Z,0
2023-05-01T02:09:46.798Z,0
2023-05-01T02:16:06.739Z,0
2023-05-01T02:22:29.867Z,0
2023-05-01T02:28:49.775Z,0
2023-05-01T02:35:12.786Z,0
2023-05-01T02:41:32.736Z,0
2023-05-01T02:47:55.877Z,0
2023-05-01T02:54:15.789Z,0
2023-05-01T03:00:38.788Z,0
2023-05-01T03:06:58.884Z,0
2023-05-01T03:13:21.762Z,0
2023-05-01T03:19:41.770Z,0
2023-05-01T03:26:04.830Z,0
2023-05-01T03:50:15.858Z,0
2023-05-01T03:56:35.868Z,0
2023-05-01T04:02:58.894Z,0
2023-05-01T04:09:18.799Z,0
2023-05-01T04:15:41.793Z,0
2023-05-01T04:22:01.758Z,0
2023-05-01T04:28:24.964Z,0
2023-05-01T04:34:44.766Z,5.62
2023-05-01T04:41:07.732Z,5.62
2023-05-01T04:47:27.764Z,5.62
2023-05-01T04:53:50.815Z,11.25
2023-05-01T05:00:10.811Z,11.25
2023-05-01T05:06:33.878Z,16.88
2023-05-01T05:12:53.768Z,16.88
2023-05-01T05:19:16.760Z,16.88
2023-05-01T05:25:36.841Z,22.5
2023-05-01T05:31:59.809Z,22.5
2023-05-01T05:38:19.792Z,28.12
2023-05-01T05:44:42.807Z,28.12
2023-05-01T05:51:02.758Z,33.75
2023-05-01T05:57:25.806Z,33.75
2023-05-01T06:03:45.786Z,39.38
2023-05-01T06:10:08.788Z,39.38
2023-05-01T06:16:28.846Z,33.75
2023-05-01T06:22:51.783Z,39.38
2023-05-01T06:29:11.797Z,45
2023-05-01T06:35:34.800Z,45
2023-05-01T06:41:54.767Z,45
2023-05-01T06:48:17.775Z,45
2023-05-01T06:54:37.753Z,50.62
2023-05-01T07:01:00.932Z,45
2023-05-01T07:07:20.737Z,45
2023-05-01T07:13:43.729Z,50.62
2023-05-01T07:20:03.775Z,61.88
2023-05-01T07:26:26.776Z,61.88
2023-05-01T07:32:46.774Z,61.88
2023-05-01T07:39:09.759Z,61.88
2023-05-01T07:45:29.736Z,56.25
2023-05-01T07:51:52.765Z,56.25
2023-05-01T07:58:12.807Z,61.88
2023-05-01T08:04:35.769Z,67.5
2023-05-01T08:10:55.745Z,73.12
2023-05-01T08:17:18.775Z,73.12
2023-05-01T08:23:38.789Z,78.75
2023-05-01T08:30:01.727Z,73.12
2023-05-01T08:36:21.791Z,67.5
2023-05-01T08:42:44.756Z,78.75
2023-05-01T08:49:04.793Z,78.75
2023-05-01T08:55:27.778Z,73.12
2023-05-01T09:01:47.793Z,73.12
2023-05-01T09:19:02.676Z,84.38
2023-05-01T09:25:22.738Z,101.25
2023-05-01T09:31:45.743Z,95.62
2023-05-01T09:38:05.789Z,90
2023-05-01T09:44:28.735Z,95.62
2023-05-01T09:50:48.755Z,90
2023-05-01T09:57:11.846Z,129.38
2023-05-01T10:03:31.834Z,129.38
2023-05-01T10:09:54.891Z,135
2023-05-01T10:16:14.799Z,135
2023-05-01T10:22:37.773Z,129.38
2023-05-01T10:28:57.735Z,123.75
2023-05-01T10:35:20.767Z,129.38
2023-05-01T10:41:40.770Z,140.62
2023-05-01T10:48:03.768Z,146.25
2023-05-01T10:54:23.788Z,151.88
2023-05-01T11:00:46.737Z,123.75
2023-05-01T11:07:06.780Z,129.38
2023-05-01T11:13:29.786Z,123.75
2023-05-01T11:19:49.759Z,123.75
2023-05-01T11:26:12.874Z,118.12
2023-05-01T11:32:32.856Z,118.12
2023-05-01T11:38:55.754Z,123.75
2023-05-01T11:45:15.773Z,123.75
2023-05-01T11:51:38.768Z,129.38
2023-05-01T11:57:58.773Z,151.88
2023-05-01T12:04:21.785Z,123.75
2023-05-01T12:10:41.796Z,123.75
2023-05-01T12:17:04.884Z,129.38
2023-05-01T12:23:24.751Z,123.75
2023-05-01T12:29:47.789Z,140.62
2023-05-01T12:36:07.732Z,191.25
2023-05-01T12:42:30.761Z,163.12
2023-05-01T12:48:52.397Z,135
2023-05-01T12:55:13.722Z,118.12
2023-05-01T13:01:33.771Z,90
2023-05-01T13:07:56.758Z,84.38
2023-05-01T13:14:16.729Z,90
2023-05-01T13:20:39.768Z,95.62
2023-05-01T13:26:59.762Z,118.12
2023-05-01T13:33:22.812Z,123.75
2023-05-01T13:39:42.726Z,112.5
2023-05-01T13:46:05.831Z,101.25
2023-05-01T13:52:25.742Z,90
2023-05-01T13:58:48.744Z,90
2023-05-01T14:05:08.776Z,78.75
2023-05-01T14:11:31.730Z,73.12
2023-05-01T14:17:51.747Z,95.62
2023-05-01T14:24:14.762Z,73.12
2023-05-01T14:30:34.729Z,67.5
2023-05-01T14:36:57.779Z,67.5
2023-05-01T14:43:17.945Z,56.25
2023-05-01T14:49:40.749Z,56.25
2023-05-01T15:05:48.761Z,39.38
2023-05-01T15:12:08.751Z,33.75
2023-05-01T15:18:31.786Z,28.12
2023-05-01T15:24:51.779Z,33.75
2023-05-01T15:31:14.853Z,33.75
2023-05-01T15:37:34.809Z,28.12
2023-05-01T15:43:57.772Z,28.12
2023-05-01T15:50:17.780Z,33.75
2023-05-01T15:56:40.772Z,33.75
2023-05-01T16:03:00.801Z,28.12
2023-05-01T16:09:23.841Z,22.5
2023-05-01T16:15:43.776Z,22.5
2023-05-01T16:22:06.852Z,22.5
2023-05-01T16:28:26.812Z,16.88
2023-05-01T16:34:49.906Z,16.88
2023-05-01T16:41:09.928Z,16.88
2023-05-01T16:47:33.024Z,11.25
2023-05-01T16:53:52.767Z,5.62
2023-05-01T17:00:15.901Z,5.62
2023-05-01T17:06:35.816Z,11.25
2023-05-01T17:12:58.880Z,16.88
2023-05-01T17:19:18.769Z,33.75
2023-05-01T17:25:41.750Z,39.38
2023-05-01T17:32:01.860Z,22.5
2023-05-01T17:38:24.769Z,22.5
2023-05-01T17:44:44.787Z,28.12
2023-05-01T17:51:07.750Z,28.12
2023-05-01T17:57:27.780Z,16.88
2023-05-01T18:03:50.793Z,5.62
2023-05-01T18:10:10.719Z,5.62
2023-05-01T18:16:33.832Z,5.62
2023-05-01T18:22:53.767Z,0
2023-05-01T18:29:16.821Z,0
2023-05-01T18:35:36.787Z,0
2023-05-01T18:41:59.771Z,0
2023-05-01T18:48:19.786Z,0
2023-05-01T18:54:42.761Z,0
2023-05-01T19:01:02.840Z,0
2023-05-01T19:07:25.782Z,0
2023-05-01T19:13:45.759Z,0
2023-05-01T19:20:08.771Z,0
2023-05-01T19:26:28.732Z,0
2023-05-01T19:32:51.831Z,0
2023-05-01T19:39:11.776Z,0
2023-05-01T19:45:34.745Z,0
2023-05-01T19:51:54.828Z,0
2023-05-01T19:58:17.752Z,0
2023-05-01T20:04:37.779Z,0
2023-05-01T20:11:00.749Z,0
2023-05-01T20:26:50.812Z,0
2023-05-01T20:33:13.789Z,0
2023-05-01T20:39:33.824Z,0
2023-05-01T20:45:56.808Z,0
2023-05-01T20:52:16.754Z,0
2023-05-01T20:58:39.791Z,0
2023-05-01T21:04:59.784Z,0
2023-05-01T21:11:22.792Z,0
2023-05-01T21:17:42.759Z,0
2023-05-01T21:24:05.885Z,0
2023-05-01T21:30:25.772Z,0
2023-05-01T21:36:48.741Z,0
2023-05-01T21:43:08.844Z,0
2023-05-01T21:49:31.752Z,0
2023-05-01T21:55:51.778Z,0
2023-05-01T22:20:09.748Z,0
2023-05-01T22:26:29.774Z,0
2023-05-01T22:32:52.802Z,0
2023-05-01T22:39:12.796Z,0
2023-05-01T22:45:35.754Z,0
2023-05-01T22:51:55.780Z,0
2023-05-01T22:58:18.779Z,0
2023-05-01T23:04:38.818Z,0
2023-05-01T23:11:01.744Z,0
2023-05-01T23:17:21.867Z,0
2023-05-01T23:23:44.732Z,0
2023-05-01T23:30:05.021Z,0
2023-05-01T23:36:27.829Z,0
2023-05-01T23:42:47.803Z,0
2023-05-01T23:49:10.763Z,0
2023-05-01T23:55:30.795Z,0
